Time;durP1;ratioP1;P1;durP2;ratioP2;P2;SDS_P1;SDS_P2;PMS_P1;PMS_P2;Temp;Humidity;BMP_temperature;BMP_pressure;BME280_temperature;BME280_humidity;BME280_pressure;Samples;Min_cycle;Max_cycle;Signal;HPM_P1;HPM_P2
2023/10/01 00:00:46;;;;;;;15.40;14.30;;;10.30;1.00;;;;;;4849903;29;20441;-45
2023/10/01 00:03:14;;;;;;;16.10;14.57;;;10.30;1.00;;;;;;4849925;29;20532;-40
2023/10/01 00:05:40;;;;;;;14.90;13.90;;;10.30;1.00;;;;;;4849268;29;20521;-45
2023/10/01 00:08:08;;;;;;;15.43;14.30;;;10.30;1.00;;;;;;4849174;29;20449;-44
2023/10/01 00:10:34;;;;;;;16.27;14.87;;;10.30;1.00;;;;;;4849855;29;20566;-46
2023/10/01 00:12:59;;;;;;;15.80;14.60;;;10.20;1.00;;;;;;4849617;29;20417;-43
2023/10/01 00:15:27;;;;;;;15.57;14.40;;;10.20;1.00;;;;;;4849651;29;20440;-44
2023/10/01 00:17:53;;;;;;;15.53;14.10;;;10.20;1.00;;;;;;4849360;29;20191;-44
2023/10/01 00:20:27;;;;;;;15.73;14.43;;;10.10;1.00;;;;;;4849236;29;20433;-45
2023/10/01 00:23:00;;;;;;;15.33;14.03;;;10.10;1.00;;;;;;4849396;29;20624;-46
2023/10/01 00:25:27;;;;;;;14.93;13.80;;;10.10;1.00;;;;;;4848782;29;21028;-42
2023/10/01 00:27:54;;;;;;;14.20;13.10;;;10.10;1.00;;;;;;4847979;29;20433;-46
2023/10/01 00:30:21;;;;;;;15.63;14.47;;;10.10;1.00;;;;;;4849280;29;20949;-42
2023/10/01 00:32:48;;;;;;;15.40;14.20;;;10.00;1.00;;;;;;4849097;29;20421;-41
2023/10/01 00:35:13;;;;;;;14.60;13.70;;;10.10;1.00;;;;;;4849408;29;21388;-48
2023/10/01 00:37:40;;;;;;;15.27;14.20;;;10.10;1.00;;;;;;4849034;29;20532;-44
2023/10/01 00:40:08;;;;;;;14.50;13.50;;;10.10;1.00;;;;;;4848422;29;20200;-46
2023/10/01 00:42:35;;;;;;;15.03;13.93;;;10.10;1.00;;;;;;4849714;29;20879;-48
2023/10/01 00:45:08;;;;;;;15.40;14.20;;;10.10;1.00;;;;;;4848860;29;20465;-43
2023/10/01 00:47:35;;;;;;;14.37;13.47;;;10.10;1.00;;;;;;4848699;29;20464;-47
2023/10/01 00:50:01;;;;;;;14.90;13.87;;;10.10;1.00;;;;;;4849110;29;21083;-46
2023/10/01 00:52:28;;;;;;;14.07;12.97;;;10.10;1.00;;;;;;4848903;29;20912;-43
2023/10/01 00:54:55;;;;;;;15.30;14.30;;;10.10;1.00;;;;;;4848194;29;20429;-45
2023/10/01 00:57:21;;;;;;;14.27;13.17;;;10.10;1.00;;;;;;4849091;29;20441;-46
2023/10/01 00:59:48;;;;;;;15.97;14.73;;;10.00;1.00;;;;;;4848097;29;20425;-44
2023/10/01 01:02:18;;;;;;;14.77;13.57;;;10.00;1.00;;;;;;4848365;29;20180;-45
2023/10/01 01:05:05;;;;;;;14.33;13.33;;;10.10;1.00;;;;;;4848143;29;20482;-44
2023/10/01 01:07:32;;;;;;;14.37;13.30;;;10.10;1.00;;;;;;4848388;29;20421;-41
2023/10/01 01:10:00;;;;;;;15.23;14.13;;;10.10;1.00;;;;;;4848726;29;20473;-40
2023/10/01 01:12:27;;;;;;;14.80;13.77;;;10.10;1.00;;;;;;4848960;29;20801;-43
2023/10/01 01:14:54;;;;;;;14.90;13.90;;;10.10;1.00;;;;;;4847753;29;20441;-44
2023/10/01 01:17:21;;;;;;;15.57;14.37;;;10.10;1.00;;;;;;4848812;29;20881;-48
2023/10/01 01:19:53;;;;;;;14.90;13.90;;;10.10;1.00;;;;;;4848325;29;20429;-44
2023/10/01 01:22:28;;;;;;;13.97;13.07;;;10.00;1.00;;;;;;4848332;29;20438;-41
2023/10/01 01:24:57;;;;;;;14.47;13.47;;;10.00;1.00;;;;;;4848503;29;20461;-43
2023/10/01 01:27:30;;;;;;;15.07;13.63;;;10.00;1.00;;;;;;4848238;29;20437;-43
2023/10/01 01:29:57;;;;;;;14.40;13.33;;;10.00;1.00;;;;;;4848270;29;20457;-44
2023/10/01 01:32:24;;;;;;;14.10;13.00;;;10.00;1.00;;;;;;4848032;29;20461;-45
2023/10/01 01:34:52;;;;;;;13.90;13.00;;;9.90;1.00;;;;;;4847853;29;20457;-44
2023/10/01 01:40:13;;;;;;;15.10;14.03;;;9.90;1.00;;;;;;4848371;29;21171;-41
2023/10/01 01:42:39;;;;;;;15.00;13.90;;;9.80;1.00;;;;;;4847927;29;20442;-44
2023/10/01 01:45:27;;;;;;;16.03;14.40;;;9.80;1.00;;;;;;4847497;29;20472;-41
2023/10/01 01:47:53;;;;;;;15.30;14.20;;;9.80;1.00;;;;;;4848233;29;20181;-45
2023/10/01 01:50:26;;;;;;;15.30;13.73;;;9.80;1.00;;;;;;4848215;29;20425;-40
2023/10/01 01:53:03;;;;;;;15.93;14.73;;;9.70;1.00;;;;;;4847556;29;20788;-48
2023/10/01 01:55:34;;;;;;;16.23;14.93;;;9.70;1.00;;;;;;4847802;29;20453;-41
2023/10/01 01:58:08;;;;;;;15.00;13.90;;;9.70;1.00;;;;;;4847821;29;20520;-40
2023/10/01 02:00:37;;;;;;;14.07;13.17;;;9.70;1.00;;;;;;4847845;29;20413;-43
2023/10/01 02:03:10;;;;;;;14.23;13.20;;;9.70;1.00;;;;;;4847611;29;20441;-43
2023/10/01 02:05:41;;;;;;;14.87;13.87;;;9.70;1.00;;;;;;4847630;29;20469;-40
2023/10/01 02:08:23;;;;;;;15.40;14.10;;;9.70;1.00;;;;;;4846329;29;20433;-49
2023/10/01 02:10:56;;;;;;;14.77;13.67;;;9.70;1.00;;;;;;4847049;29;20409;-39
2023/10/01 02:19:11;;;;;;;15.00;14.00;;;9.60;99.90;;;;;;4847507;29;20968;-43
2023/10/01 02:21:44;;;;;;;15.27;14.23;;;9.60;99.90;;;;;;4847927;29;21126;-44
2023/10/01 02:24:13;;;;;;;15.30;13.90;;;9.60;99.90;;;;;;4847745;29;20421;-47
2023/10/01 02:26:39;;;;;;;15.43;14.23;;;9.60;99.90;;;;;;4847418;29;20475;-42
2023/10/01 02:29:05;;;;;;;15.97;14.57;;;9.70;99.90;;;;;;4847808;29;20835;-43
2023/10/01 02:31:39;;;;;;;14.97;14.00;;;9.60;99.90;;;;;;4847748;29;20911;-42
2023/10/01 02:34:08;;;;;;;15.10;14.00;;;9.60;99.90;;;;;;4847393;29;20947;-40
2023/10/01 02:36:36;;;;;;;15.37;14.07;;;9.60;99.90;;;;;;4847503;29;20432;-46
2023/10/01 02:39:10;;;;;;;14.90;13.60;;;9.50;99.90;;;;;;4847654;29;20895;-43
2023/10/01 02:41:38;;;;;;;16.00;14.60;;;9.50;99.90;;;;;;4847468;29;20437;-46
2023/10/01 02:44:04;;;;;;;14.83;13.73;;;9.50;99.90;;;;;;4847828;29;20417;-44
2023/10/01 02:46:29;;;;;;;14.77;13.50;;;9.50;99.90;;;;;;4847301;29;20465;-45
2023/10/01 02:48:59;;;;;;;14.10;13.20;;;9.60;99.90;;;;;;4847968;29;20425;-43
2023/10/01 02:51:37;;;;;;;14.77;13.53;;;9.60;99.90;;;;;;4846141;29;20188;-43
2023/10/01 02:54:06;;;;;;;14.80;13.80;;;9.70;99.90;;;;;;4847609;29;20457;-46
2023/10/01 02:56:52;;;;;;;14.27;13.27;;;9.70;99.90;;;;;;4847338;29;20436;-43
2023/10/01 02:59:20;;;;;;;13.83;12.83;;;9.70;99.90;;;;;;4847341;29;20429;-40
2023/10/01 03:01:46;;;;;;;14.40;13.40;;;9.80;99.90;;;;;;4847178;29;20437;-42
2023/10/01 03:04:15;;;;;;;15.50;14.27;;;9.80;99.90;;;;;;4847545;29;20515;-47
2023/10/01 03:06:52;;;;;;;14.60;13.50;;;9.80;99.90;;;;;;4847317;29;20469;-47
2023/10/01 03:09:22;;;;;;;15.57;14.40;;;9.80;99.90;;;;;;4846911;29;20482;-47
2023/10/01 03:11:57;;;;;;;14.87;13.67;;;9.80;99.90;;;;;;4847285;29;20473;-46
2023/10/01 03:14:26;;;;;;;14.40;13.40;;;9.90;99.90;;;;;;4847142;29;20504;-42
2023/10/01 03:16:53;;;;;;;15.30;14.00;;;9.90;99.90;;;;;;4847072;29;20988;-44
2023/10/01 03:19:26;;;;;;;13.73;12.83;;;9.90;99.90;;;;;;4847116;29;20913;-46
2023/10/01 03:24:33;;;;;;;14.87;13.77;;;10.00;99.90;;;;;;4850663;29;20895;-44
2023/10/01 03:26:59;;;;;;;14.50;13.50;;;10.00;99.90;;;;;;4850201;29;20596;-46
2023/10/01 03:29:34;;;;;;;14.60;13.47;;;10.10;99.90;;;;;;4849115;29;20504;-50
2023/10/01 03:34:47;;;;;;;15.37;14.17;;;10.20;99.90;;;;;;4850895;29;20635;-42
2023/10/01 03:37:19;;;;;;;14.90;13.90;;;10.20;99.90;;;;;;4850496;29;20864;-43
2023/10/01 03:39:46;;;;;;;14.10;13.00;;;10.20;99.90;;;;;;4850376;29;20252;-46
2023/10/01 03:42:13;;;;;;;15.10;13.90;;;10.20;99.90;;;;;;4850071;29;20897;-48
2023/10/01 03:47:23;;;;;;;14.13;13.13;;;10.30;99.90;;;;;;4850082;29;20521;-43
2023/10/01 03:49:54;;;;;;;14.13;13.03;;;10.30;99.90;;;;;;4850451;29;20448;-43
2023/10/01 03:52:29;;;;;;;13.60;12.60;;;10.40;99.90;;;;;;4848858;29;20492;-44
2023/10/01 03:57:24;;;;;;;14.00;12.80;;;10.40;99.90;;;;;;4849613;29;20797;-46
2023/10/01 03:59:53;;;;;;;14.53;13.70;;;10.40;99.90;;;;;;4850046;29;20466;-44
2023/10/01 04:02:42;;;;;;;14.73;13.50;;;10.50;99.90;;;;;;4849898;29;20503;-44
2023/10/01 04:08:14;;;;;;;15.00;13.53;;;10.40;99.90;;;;;;4827689;29;20466;-39
2023/10/01 04:10:41;;;;;;;14.67;13.77;;;10.50;99.90;;;;;;4828595;29;20422;-46
2023/10/01 04:13:13;;;;;;;14.93;13.80;;;10.50;99.90;;;;;;4828381;29;20430;-45
2023/10/01 04:15:41;;;;;;;15.20;14.10;;;10.50;99.90;;;;;;4828197;29;20434;-47
2023/10/01 04:21:18;;;;;;;14.30;13.30;;;10.50;99.90;;;;;;4828613;29;20503;-44
2023/10/01 04:23:49;;;;;;;14.33;13.23;;;10.50;99.90;;;;;;4828286;29;21073;-43
2023/10/01 04:26:17;;;;;;;14.97;13.80;;;10.60;99.90;;;;;;4827806;29;20474;-43
2023/10/01 04:28:50;;;;;;;14.73;13.67;;;10.60;99.90;;;;;;4827878;29;20430;-43
2023/10/01 04:31:19;;;;;;;13.93;13.00;;;10.50;99.90;;;;;;4828340;29;20422;-47
2023/10/01 04:33:50;;;;;;;14.97;13.87;;;10.60;99.90;;;;;;4827474;29;20446;-49
2023/10/01 04:36:16;;;;;;;14.00;13.10;;;10.50;99.90;;;;;;4827694;29;20478;-46
2023/10/01 04:39:00;;;;;;;14.13;13.10;;;10.60;99.90;;;;;;4835681;29;21179;-44
2023/10/01 04:41:25;;;;;;;14.93;13.80;;;10.60;99.90;;;;;;4849331;29;20477;-44
2023/10/01 04:44:06;;;;;;;14.80;13.70;;;10.60;99.90;;;;;;4848662;29;20948;-43
2023/10/01 04:46:37;;;;;;;14.20;13.30;;;10.60;99.90;;;;;;4848978;29;20748;-43
2023/10/01 04:49:08;;;;;;;15.03;13.83;;;10.60;99.90;;;;;;4849384;29;20433;-46
2023/10/01 04:51:45;;;;;;;14.53;13.60;;;10.60;99.90;;;;;;4848631;29;20996;-46
2023/10/01 04:54:17;;;;;;;13.90;12.87;;;10.60;99.90;;;;;;4849358;29;20481;-42
2023/10/01 04:56:50;;;;;;;14.03;13.13;;;10.60;99.90;;;;;;4849371;29;20449;-43
2023/10/01 04:59:17;;;;;;;14.63;13.63;;;10.70;99.90;;;;;;4848678;29;21327;-49
2023/10/01 05:01:42;;;;;;;13.83;13.03;;;10.70;99.90;;;;;;4848509;29;20444;-46
2023/10/01 05:04:11;;;;;;;14.90;13.90;;;10.70;99.90;;;;;;4849028;29;20465;-42
2023/10/01 05:06:40;;;;;;;14.37;13.37;;;10.60;99.90;;;;;;4848205;29;20223;-43
2023/10/01 05:09:07;;;;;;;14.80;13.60;;;10.70;99.90;;;;;;4847436;29;20468;-44
2023/10/01 05:11:33;;;;;;;14.67;13.67;;;10.70;99.90;;;;;;4847372;29;21035;-45
2023/10/01 05:13:59;;;;;;;14.40;13.47;;;10.70;99.90;;;;;;4847830;29;20425;-41
2023/10/01 05:16:31;;;;;;;14.80;13.80;;;10.70;99.90;;;;;;4848007;29;20228;-44
2023/10/01 05:19:09;;;;;;;13.93;13.03;;;10.80;99.90;;;;;;4848860;29;20428;-41
2023/10/01 05:21:49;;;;;;;14.50;13.60;;;10.80;99.90;;;;;;4848154;29;20464;-44
2023/10/01 05:24:34;;;;;;;14.47;13.47;;;10.80;99.90;;;;;;4848466;29;20921;-43
2023/10/01 05:27:08;;;;;;;15.40;14.10;;;10.80;99.90;;;;;;4847974;29;20469;-43
2023/10/01 05:29:34;;;;;;;14.77;13.77;;;10.90;99.90;;;;;;4848721;29;20529;-44
2023/10/01 05:32:02;;;;;;;15.00;13.90;;;10.90;99.90;;;;;;4848171;29;20445;-39
2023/10/01 05:34:28;;;;;;;14.27;13.27;;;11.00;99.90;;;;;;4848429;29;20421;-44
2023/10/01 05:37:08;;;;;;;14.03;13.00;;;11.00;99.90;;;;;;4848576;29;20480;-47
2023/10/01 05:39:55;;;;;;;14.10;13.20;;;11.00;99.90;;;;;;4848371;29;20476;-43
2023/10/01 05:42:34;;;;;;;15.00;13.80;;;11.10;99.90;;;;;;4847869;29;21019;-45
2023/10/01 05:44:59;;;;;;;15.30;13.80;;;11.10;99.90;;;;;;4846802;29;20437;-46
2023/10/01 05:47:41;;;;;;;14.80;13.70;;;11.20;99.90;;;;;;4847971;29;21083;-45
2023/10/01 05:50:09;;;;;;;13.67;12.83;;;11.30;99.90;;;;;;4848441;29;20188;-43
2023/10/01 05:52:40;;;;;;;14.50;13.50;;;11.40;99.90;;;;;;4847831;29;20473;-45
2023/10/01 05:55:08;;;;;;;14.63;13.70;;;11.50;99.90;;;;;;4848418;29;20773;-45
2023/10/01 05:57:34;;;;;;;14.50;13.50;;;11.60;99.90;;;;;;4847884;29;20488;-44
2023/10/01 06:00:00;;;;;;;15.47;14.40;;;11.60;99.90;;;;;;4848113;29;20895;-47
2023/10/01 06:03:08;;;;;;;14.97;13.87;;;11.70;99.90;;;;;;4847769;29;20425;-46
2023/10/01 06:05:33;;;;;;;14.30;13.30;;;11.70;99.90;;;;;;4845122;29;20461;-41
2023/10/01 06:08:00;;;;;;;13.97;13.07;;;11.80;99.90;;;;;;4847363;29;20479;-45
2023/10/01 06:10:35;;;;;;;14.60;13.70;;;11.90;99.90;;;;;;4847367;29;20822;-46
2023/10/01 06:13:06;;;;;;;14.10;13.17;;;12.00;99.90;;;;;;4848006;29;20443;-46
2023/10/01 06:15:33;;;;;;;14.77;13.80;;;12.00;99.90;;;;;;4847564;29;20798;-46
2023/10/01 06:18:00;;;;;;;14.80;13.80;;;12.10;99.90;;;;;;4847495;29;20421;-46
2023/10/01 06:20:27;;;;;;;14.60;13.60;;;12.20;99.90;;;;;;4845677;29;21315;-41
2023/10/01 06:22:56;;;;;;;14.00;12.90;;;12.30;99.90;;;;;;4847496;29;20448;-47
2023/10/01 06:25:37;;;;;;;14.87;13.80;;;12.40;99.90;;;;;;4847312;29;21003;-49
2023/10/01 06:28:08;;;;;;;14.73;13.83;;;12.40;99.90;;;;;;4847481;29;20434;-48
2023/10/01 06:30:34;;;;;;;14.40;13.47;;;12.50;99.90;;;;;;4844789;29;20449;-46
2023/10/01 06:32:59;;;;;;;15.77;14.37;;;12.50;99.90;;;;;;4845948;29;20470;-43
2023/10/01 06:35:26;;;;;;;14.27;13.37;;;12.50;99.90;;;;;;4847101;29;20198;-42
2023/10/01 06:37:53;;;;;;;14.10;13.07;;;12.60;99.90;;;;;;4847256;29;20199;-48
2023/10/01 06:40:31;;;;;;;14.03;13.03;;;12.70;99.90;;;;;;4846888;29;20758;-44
2023/10/01 06:42:59;;;;;;;14.40;13.40;;;12.60;99.90;;;;;;4847075;29;20492;-51
2023/10/01 06:45:41;;;;;;;15.13;14.13;;;12.80;99.90;;;;;;4846967;29;20520;-48
2023/10/01 06:48:10;;;;;;;14.73;13.73;;;13.00;99.90;;;;;;4846680;29;20413;-49
2023/10/01 06:50:46;;;;;;;14.70;13.37;;;13.10;99.90;;;;;;4847869;29;20532;-50
2023/10/01 06:53:13;;;;;;;14.00;13.10;;;13.30;99.90;;;;;;4847254;29;20645;-46
2023/10/01 06:55:39;;;;;;;14.83;13.87;;;13.40;99.90;;;;;;4846763;29;20482;-50
2023/10/01 06:58:07;;;;;;;13.97;12.97;;;13.60;99.90;;;;;;4848933;29;20511;-46
2023/10/01 07:00:36;;;;;;;13.73;12.93;;;13.80;99.90;;;;;;4850484;29;20196;-49
2023/10/01 07:03:19;;;;;;;13.87;12.87;;;13.90;99.90;;;;;;4850361;29;20432;-47
2023/10/01 07:05:46;;;;;;;13.80;12.80;;;13.90;99.90;;;;;;4850833;29;20512;-48
2023/10/01 07:08:14;;;;;;;13.37;12.67;;;14.00;99.90;;;;;;4850361;29;20464;-42
2023/10/01 07:10:40;;;;;;;13.60;12.70;;;14.10;99.90;;;;;;4850303;29;20484;-44
2023/10/01 07:13:06;;;;;;;14.93;13.87;;;14.20;99.90;;;;;;4850455;29;20433;-46
2023/10/01 07:15:39;;;;;;;13.43;12.63;;;14.20;99.90;;;;;;4850583;29;20578;-44
2023/10/01 07:18:15;;;;;;;14.23;13.07;;;14.30;99.90;;;;;;4848475;29;20188;-44
2023/10/01 07:20:44;;;;;;;14.03;13.20;;;14.40;99.90;;;;;;4850245;29;20432;-46
2023/10/01 07:23:13;;;;;;;14.00;13.20;;;14.50;99.90;;;;;;4850308;29;20429;-44
2023/10/01 07:25:42;;;;;;;14.33;13.33;;;14.50;99.90;;;;;;4847981;29;21175;-46
2023/10/01 07:28:12;;;;;;;12.90;12.20;;;14.60;99.90;;;;;;4848764;29;20453;-46
2023/10/01 07:30:51;;;;;;;14.27;13.20;;;14.60;99.90;;;;;;4849307;29;20433;-49
2023/10/01 07:33:17;;;;;;;13.43;12.43;;;14.70;99.90;;;;;;4849440;29;20443;-47
2023/10/01 07:35:44;;;;;;;13.10;12.30;;;14.70;99.90;;;;;;4849920;29;20416;-48
2023/10/01 07:38:14;;;;;;;14.07;13.07;;;14.70;99.90;;;;;;4849940;29;20440;-41
2023/10/01 07:40:57;;;;;;;13.70;12.70;;;14.80;99.90;;;;;;4849227;29;20513;-43
2023/10/01 07:43:26;;;;;;;13.97;12.87;;;14.90;99.90;;;;;;4849561;29;20417;-48
2023/10/01 07:45:55;;;;;;;13.40;12.57;;;14.90;99.90;;;;;;4848536;29;20560;-46
2023/10/01 07:48:27;;;;;;;14.03;13.17;;;15.10;99.90;;;;;;4849281;29;20453;-48
2023/10/01 07:50:54;;;;;;;14.33;13.17;;;15.40;99.90;;;;;;4849598;29;20430;-42
2023/10/01 07:53:20;;;;;;;13.07;12.27;;;15.40;99.90;;;;;;4849610;29;20452;-46
2023/10/01 07:55:46;;;;;;;13.70;12.80;;;15.60;99.90;;;;;;4850409;29;20798;-45
2023/10/01 07:58:23;;;;;;;13.80;12.90;;;16.00;99.90;;;;;;4849348;29;20426;-47
2023/10/01 08:00:58;;;;;;;13.73;12.83;;;16.20;99.90;;;;;;4849613;29;20425;-44
2023/10/01 08:06:05;;;;;;;14.17;13.20;;;16.60;99.90;;;;;;4849785;29;20891;-44
2023/10/01 08:08:37;;;;;;;12.60;11.90;;;16.90;99.90;;;;;;4848623;29;20559;-45
2023/10/01 08:11:55;;;;;;;13.70;12.80;;;17.10;99.50;;;;;;4849734;29;20881;-47
2023/10/01 08:13:57;;;;;;;12.60;11.90;;;17.30;99.30;;;;;;4849314;29;20437;-42
2023/10/01 08:16:23;;;;;;;12.63;11.90;;;17.70;98.80;;;;;;4849402;29;20421;-45
2023/10/01 08:18:57;;;;;;;13.10;12.20;;;17.90;97.70;;;;;;4849491;29;20421;-47
2023/10/01 08:21:36;;;;;;;13.37;12.47;;;18.30;97.20;;;;;;4849372;29;20916;-43
2023/10/01 08:24:09;;;;;;;13.30;12.40;;;18.60;96.30;;;;;;4849573;29;20699;-45
2023/10/01 08:26:49;;;;;;;12.30;11.60;;;18.80;95.60;;;;;;4849418;29;20480;-50
2023/10/01 08:29:15;;;;;;;11.80;11.20;;;18.90;94.80;;;;;;4849389;29;20413;-46
2023/10/01 08:34:24;;;;;;;11.90;11.20;;;19.20;94.20;;;;;;4849034;29;20466;-43
2023/10/01 08:36:57;;;;;;;12.57;11.77;;;19.40;93.70;;;;;;4849222;29;20426;-44
2023/10/01 08:42:12;;;;;;;13.43;12.47;;;19.80;92.20;;;;;;4849251;29;20428;-42
2023/10/01 08:45:04;;;;;;;13.23;12.33;;;20.10;92.40;;;;;;4848569;29;20512;-46
2023/10/01 08:47:31;;;;;;;13.07;12.23;;;20.40;91.00;;;;;;4844573;29;20540;-44
2023/10/01 08:52:55;;;;;;;12.87;12.10;;;21.00;87.70;;;;;;4849373;29;20438;-46
2023/10/01 09:00:51;;;;;;;12.50;11.80;;;21.60;82.80;;;;;;4849185;29;20429;-40
2023/10/01 09:03:28;;;;;;;11.93;11.23;;;21.90;82.70;;;;;;4848563;29;20432;-44
2023/10/01 09:06:03;;;;;;;11.70;11.10;;;22.40;79.60;;;;;;4848517;29;20887;-48
2023/10/01 09:08:42;;;;;;;11.57;10.97;;;22.80;77.50;;;;;;4848732;29;20461;-43
2023/10/01 09:11:13;;;;;;;12.13;11.43;;;23.40;73.50;;;;;;4848758;29;20468;-47
2023/10/01 09:16:42;;;;;;;11.00;10.50;;;25.20;63.50;;;;;;4848491;29;20420;-46
2023/10/01 09:21:55;;;;;;;11.93;11.13;;;26.20;54.40;;;;;;4848247;29;20959;-47
2023/10/01 09:24:38;;;;;;;11.67;11.07;;;26.30;48.80;;;;;;4848144;29;20501;-47
2023/10/01 09:27:20;;;;;;;11.47;10.77;;;26.60;49.20;;;;;;4848218;29;20472;-48
2023/10/01 09:29:57;;;;;;;11.73;11.13;;;27.10;46.20;;;;;;4848059;29;20912;-50
2023/10/01 09:32:50;;;;;;;11.33;10.83;;;27.20;41.80;;;;;;4848217;29;20417;-49
2023/10/01 09:35:30;;;;;;;10.93;10.43;;;26.00;42.30;;;;;;4847908;29;20417;-44
2023/10/01 09:38:18;;;;;;;10.90;10.30;;;26.10;43.30;;;;;;4848012;29;20452;-46
2023/10/01 09:40:45;;;;;;;11.77;11.10;;;26.00;44.30;;;;;;4847880;29;20920;-43
2023/10/01 09:43:33;;;;;;;12.43;11.73;;;26.00;44.30;;;;;;4847624;29;20437;-45
2023/10/01 09:46:03;;;;;;;10.93;10.43;;;26.20;42.80;;;;;;4847857;29;20500;-43
2023/10/01 09:48:36;;;;;;;11.43;10.83;;;25.80;42.30;;;;;;4847877;29;20541;-48
2023/10/01 09:51:13;;;;;;;12.10;11.20;;;25.20;43.30;;;;;;4846711;29;20429;-48
2023/10/01 09:53:44;;;;;;;11.30;10.70;;;24.70;43.70;;;;;;4847784;29;20432;-48
2023/10/01 09:56:27;;;;;;;11.37;10.73;;;24.90;44.70;;;;;;4847826;29;20928;-44
2023/10/01 09:59:01;;;;;;;11.70;11.10;;;25.40;44.70;;;;;;4847990;29;20520;-43
2023/10/01 10:01:31;;;;;;;11.93;11.33;;;25.80;43.30;;;;;;4847615;29;20421;-47
2023/10/01 10:03:59;;;;;;;11.57;10.97;;;26.60;42.90;;;;;;4847589;29;20428;-40
2023/10/01 10:06:25;;;;;;;11.80;11.10;;;27.50;40.80;;;;;;4846018;29;20473;-40
2023/10/01 10:09:03;;;;;;;12.57;11.83;;;27.20;39.40;;;;;;4848169;29;20890;-47
2023/10/01 10:11:30;;;;;;;11.50;10.87;;;26.70;40.10;;;;;;4847798;29;20916;-47
2023/10/01 10:13:58;;;;;;;10.50;9.90;;;26.00;40.90;;;;;;4847471;29;20430;-47
2023/10/01 10:16:33;;;;;;;12.60;11.90;;;26.30;40.50;;;;;;4847356;29;20896;-45
2023/10/01 10:19:12;;;;;;;11.83;11.13;;;26.10;41.90;;;;;;4847676;29;20439;-43
2023/10/01 10:24:47;;;;;;;11.93;11.20;;;26.00;42.00;;;;;;4847953;29;20507;-46
2023/10/01 10:27:17;;;;;;;12.17;11.57;;;25.90;42.00;;;;;;4847483;29;20460;-44
2023/10/01 10:29:58;;;;;;;12.00;11.30;;;25.60;42.50;;;;;;4847932;29;20421;-46
2023/10/01 10:32:29;;;;;;;11.90;11.30;;;25.60;43.60;;;;;;4847898;29;20413;-46
2023/10/01 10:35:03;;;;;;;11.60;11.00;;;25.30;42.60;;;;;;4850422;29;20429;-50
2023/10/01 10:37:35;;;;;;;12.13;11.43;;;25.30;43.60;;;;;;4850948;29;20437;-43
2023/10/01 10:40:44;;;;;;;11.43;10.83;;;25.00;42.90;;;;;;4851946;29;20457;-46
2023/10/01 10:42:56;;;;;;;11.93;11.23;;;25.40;44.50;;;;;;4853229;29;20433;-41
2023/10/01 10:45:23;;;;;;;11.87;11.17;;;25.90;42.50;;;;;;4850869;29;20469;-42
2023/10/01 10:48:03;;;;;;;11.30;10.70;;;27.20;41.10;;;;;;4851202;29;20544;-46
2023/10/01 10:50:48;;;;;;;12.10;11.50;;;28.10;38.20;;;;;;4851227;29;20434;-47
2023/10/01 10:53:21;;;;;;;13.13;12.23;;;28.00;36.60;;;;;;4849651;29;20457;-43
2023/10/01 10:55:52;;;;;;;12.00;11.20;;;27.40;36.70;;;;;;4851216;29;20439;-45
2023/10/01 10:58:24;;;;;;;11.90;11.20;;;27.00;39.00;;;;;;4850810;29;20425;-44
2023/10/01 11:00:51;;;;;;;12.37;11.60;;;26.50;39.00;;;;;;4850658;29;20431;-46
2023/10/01 11:03:42;;;;;;;12.30;11.60;;;25.90;38.70;;;;;;4850795;29;20433;-48
2023/10/01 11:06:17;;;;;;;12.00;11.40;;;25.90;38.80;;;;;;4850680;29;20513;-45
2023/10/01 11:08:51;;;;;;;11.47;10.83;;;25.40;38.70;;;;;;4850542;29;20482;-50
2023/10/01 11:11:29;;;;;;;12.17;11.47;;;25.20;37.60;;;;;;4850497;29;20534;-44
2023/10/01 11:14:02;;;;;;;12.20;11.50;;;25.20;37.70;;;;;;4850555;29;20508;-48
2023/10/01 11:16:34;;;;;;;12.03;11.33;;;25.10;39.00;;;;;;4850640;29;20425;-44
2023/10/01 11:19:12;;;;;;;11.30;10.80;;;25.00;39.00;;;;;;4850706;29;20456;-44
2023/10/01 11:21:58;;;;;;;11.80;11.20;;;25.00;38.80;;;;;;4850708;29;21004;-46
2023/10/01 11:24:42;;;;;;;11.33;10.73;;;25.20;39.70;;;;;;4850428;29;20835;-46
2023/10/01 11:27:25;;;;;;;11.33;10.73;;;25.30;37.90;;;;;;4850195;29;21314;-46
2023/10/01 11:30:00;;;;;;;11.90;11.30;;;25.40;35.90;;;;;;4850641;29;20436;-49
2023/10/01 11:35:34;;;;;;;11.60;11.00;;;25.30;36.90;;;;;;4850555;29;20448;-46
2023/10/01 11:38:14;;;;;;;11.77;11.17;;;25.60;36.20;;;;;;4850189;29;21012;-48
2023/10/01 11:43:35;;;;;;;11.73;11.13;;;25.40;36.30;;;;;;4849733;29;20462;-47
2023/10/01 11:46:23;;;;;;;11.23;10.73;;;25.50;36.70;;;;;;4849799;29;20556;-47
2023/10/01 11:49:04;;;;;;;11.60;11.00;;;25.20;36.60;;;;;;4849947;29;20441;-45
2023/10/01 11:51:45;;;;;;;11.43;10.83;;;24.50;37.00;;;;;;4849878;29;20908;-45
2023/10/01 11:54:20;;;;;;;11.67;11.07;;;24.20;38.20;;;;;;4849793;29;20473;-47
2023/10/01 11:57:04;;;;;;;11.30;10.70;;;24.50;39.60;;;;;;4849998;29;20460;-44
2023/10/01 11:59:30;;;;;;;11.23;10.63;;;24.50;39.10;;;;;;4849916;29;20421;-41
2023/10/01 12:01:56;;;;;;;11.60;11.00;;;24.20;39.30;;;;;;4849825;29;20425;-43
2023/10/01 12:04:43;;;;;;;11.03;10.43;;;24.50;40.50;;;;;;4849852;29;20475;-48
2023/10/01 12:07:16;;;;;;;11.83;11.23;;;24.80;37.70;;;;;;4849706;29;20508;-42
2023/10/01 12:09:50;;;;;;;11.83;11.13;;;25.00;37.40;;;;;;4849461;29;20464;-40
2023/10/01 12:12:28;;;;;;;11.60;10.90;;;25.30;36.30;;;;;;4849513;29;20417;-41
2023/10/01 12:15:33;;;;;;;11.73;11.13;;;25.10;37.00;;;;;;4849855;29;20516;-42
2023/10/01 12:17:46;;;;;;;12.40;11.70;;;25.10;38.20;;;;;;4849585;29;20438;-45
2023/10/01 12:20:22;;;;;;;11.83;11.23;;;24.60;37.60;;;;;;4849685;29;20872;-45
2023/10/01 12:23:10;;;;;;;11.57;10.97;;;24.70;38.80;;;;;;4849408;29;20456;-41
2023/10/01 12:26:31;;;;;;;12.17;11.57;;;24.50;39.30;;;;;;4848775;29;20564;-44
2023/10/01 12:28:31;;;;;;;12.80;12.07;;;24.60;39.90;;;;;;4849122;29;20496;-47
2023/10/01 12:31:00;;;;;;;11.37;10.77;;;24.80;37.20;;;;;;4849924;29;20866;-47
2023/10/01 12:33:38;;;;;;;12.10;11.50;;;24.70;34.90;;;;;;4849343;29;20193;-45
2023/10/01 12:36:11;;;;;;;12.23;11.53;;;24.50;35.60;;;;;;4849697;29;20413;-47
2023/10/01 12:38:37;;;;;;;11.90;11.30;;;24.50;35.90;;;;;;4849155;29;20416;-47
2023/10/01 12:41:04;;;;;;;12.93;12.23;;;24.50;35.40;;;;;;4849177;29;20573;-46
2023/10/01 12:43:39;;;;;;;11.40;10.83;;;24.50;36.00;;;;;;4848881;29;20481;-49
2023/10/01 12:46:10;;;;;;;11.60;11.00;;;24.60;36.60;;;;;;4848860;29;20464;-46
2023/10/01 12:48:37;;;;;;;11.80;11.20;;;24.60;36.00;;;;;;4848871;29;20413;-49
2023/10/01 12:51:07;;;;;;;11.83;11.23;;;24.70;36.50;;;;;;4848946;29;20429;-46
2023/10/01 12:53:49;;;;;;;11.97;11.30;;;24.70;35.00;;;;;;4846844;29;20437;-46
2023/10/01 12:56:16;;;;;;;11.93;11.27;;;24.70;35.50;;;;;;4847949;29;20421;-47
2023/10/01 12:58:53;;;;;;;11.67;10.97;;;24.40;35.40;;;;;;4848764;29;20441;-44
2023/10/01 13:01:32;;;;;;;12.33;11.63;;;24.50;35.40;;;;;;4848756;29;21359;-47
2023/10/01 13:06:46;;;;;;;12.23;11.60;;;24.40;35.40;;;;;;4848490;29;20744;-45
2023/10/01 13:12:06;;;;;;;10.87;10.37;;;24.50;35.80;;;;;;4848929;29;20421;-39
2023/10/01 13:14:32;;;;;;;11.80;11.20;;;24.30;35.70;;;;;;4848451;29;20508;-49
2023/10/01 13:17:01;;;;;;;11.93;11.23;;;24.30;35.70;;;;;;4848779;29;21027;-48
2023/10/01 13:19:33;;;;;;;12.40;11.77;;;24.30;36.60;;;;;;4848517;29;20859;-44
2023/10/01 13:22:04;;;;;;;12.80;11.90;;;24.30;36.30;;;;;;4848112;29;20854;-48
2023/10/01 13:24:33;;;;;;;12.57;11.87;;;24.30;35.90;;;;;;4848303;29;20509;-49
2023/10/01 13:27:13;;;;;;;11.17;10.60;;;24.20;36.00;;;;;;4848362;29;20735;-46
2023/10/01 13:29:39;;;;;;;11.87;11.27;;;24.20;37.50;;;;;;4847965;29;20439;-44
2023/10/01 13:32:15;;;;;;;12.33;11.63;;;24.30;36.70;;;;;;4848241;29;21042;-45
2023/10/01 13:34:54;;;;;;;11.60;11.07;;;24.30;37.30;;;;;;4848419;29;20421;-45
2023/10/01 13:37:42;;;;;;;11.93;11.33;;;24.30;36.40;;;;;;4848274;29;20425;-46
2023/10/01 13:40:19;;;;;;;12.80;12.00;;;24.30;37.20;;;;;;4848098;29;20869;-47
2023/10/01 14:10:16;;;;;;;12.60;11.90;;;23.70;37.30;;;;;;4847697;29;20427;-43
2023/10/01 14:12:42;;;;;;;11.93;11.40;;;23.80;37.50;;;;;;4847588;29;20425;-45
2023/10/01 14:15:21;;;;;;;12.40;11.77;;;23.70;36.40;;;;;;4847348;29;20429;-40
2023/10/01 14:17:53;;;;;;;11.40;10.80;;;23.70;37.10;;;;;;4847553;29;20504;-41
2023/10/01 14:20:44;;;;;;;10.97;10.37;;;23.80;37.30;;;;;;4847542;29;20420;-46
2023/10/01 14:23:22;;;;;;;11.57;10.97;;;23.80;36.80;;;;;;4847603;29;20421;-42
2023/10/01 14:25:58;;;;;;;12.70;11.80;;;23.80;36.60;;;;;;4847215;29;20465;-48